Time;durP1;ratioP1;P1;durP2;ratioP2;P2;SDS_P1;SDS_P2;PMS_P1;PMS_P2;Temp;Humidity;BMP_temperature;BMP_pressure;BME280_temperature;BME280_humidity;BME280_pressure;Samples;Min_cycle;Max_cycle;Signal;HPM_P1;HPM_P2
2023/11/27 00:02:58;;;;;;;9.07;3.80;;;;;;;4.95;100.00;100632.97;6276250;28;20059;-71
2023/11/27 00:05:59;;;;;;;10.07;3.83;;;;;;;4.91;100.00;100637.47;6282340;28;20052;-71
2023/11/27 00:09:02;;;;;;;9.15;4.05;;;;;;;4.89;100.00;100627.97;6267625;28;20350;-71
2023/11/27 00:12:04;;;;;;;7.05;3.53;;;;;;;4.88;100.00;100634.09;6276013;28;20460;-71
2023/11/27 00:15:07;;;;;;;9.98;3.65;;;;;;;4.88;100.00;100627.13;6275578;28;20175;-71
2023/11/27 00:18:09;;;;;;;7.80;3.20;;;;;;;4.91;100.00;100629.66;6276093;28;20156;-71
2023/11/27 00:21:10;;;;;;;6.72;3.53;;;;;;;4.85;100.00;100624.63;6275740;28;20052;-71
2023/11/27 00:24:13;;;;;;;4.00;2.53;;;;;;;4.86;100.00;100617.66;6275856;28;20049;-71
2023/11/27 00:27:15;;;;;;;6.18;3.20;;;;;;;4.84;100.00;100621.16;6275139;28;20467;-71
2023/11/27 00:30:17;;;;;;;9.57;3.00;;;;;;;4.83;100.00;100619.47;6275671;28;20350;-72
2023/11/27 00:33:19;;;;;;;8.43;2.35;;;;;;;4.83;100.00;100616.88;6275332;28;20041;-71
2023/11/27 00:36:21;;;;;;;4.40;2.17;;;;;;;4.81;100.00;100613.47;6275494;28;20053;-71
2023/11/27 00:39:23;;;;;;;7.80;2.63;;;;;;;4.79;100.00;100610.03;6275629;28;20049;-71
2023/11/27 00:42:25;;;;;;;2.92;1.83;;;;;;;4.83;100.00;100596.03;6275213;28;20041;-71
2023/11/27 00:45:26;;;;;;;4.57;1.98;;;;;;;4.80;100.00;100603.94;6275529;28;20051;-71
2023/11/27 00:48:27;;;;;;;3.97;1.63;;;;;;;4.75;100.00;100600.63;6275316;28;20057;-72
2023/11/27 00:51:29;;;;;;;2.30;1.60;;;;;;;4.75;100.00;100592.81;6275244;28;20053;-72
2023/11/27 00:54:32;;;;;;;2.30;1.45;;;;;;;4.73;100.00;100594.63;6274993;28;20110;-71
2023/11/27 00:57:33;;;;;;;4.10;2.08;;;;;;;4.81;100.00;100589.16;6275131;28;20045;-71
2023/11/27 01:00:34;;;;;;;5.28;2.03;;;;;;;4.79;100.00;100589.22;6275029;28;20446;-71
2023/11/27 01:03:36;;;;;;;3.35;1.73;;;;;;;4.79;100.00;100586.63;6275106;28;20067;-71
2023/11/27 01:06:38;;;;;;;2.50;1.50;;;;;;;4.95;100.00;100583.50;6274876;28;20056;-71
2023/11/27 01:09:41;;;;;;;4.28;2.05;;;;;;;4.93;100.00;100577.50;6275243;28;20055;-71
2023/11/27 01:12:43;;;;;;;4.28;2.33;;;;;;;4.92;100.00;100581.03;6274970;28;20052;-71
2023/11/27 01:15:45;;;;;;;4.32;2.20;;;;;;;4.93;100.00;100575.75;6274751;28;20124;-71
2023/11/27 01:18:46;;;;;;;3.63;1.95;;;;;;;4.94;100.00;100561.81;6274985;28;20163;-71
2023/11/27 01:21:48;;;;;;;3.95;2.30;;;;;;;4.98;100.00;100562.59;6274893;28;20346;-71
2023/11/27 01:24:51;;;;;;;5.22;2.47;;;;;;;5.03;100.00;100566.72;6275049;28;20049;-71
2023/11/27 01:27:52;;;;;;;4.07;2.53;;;;;;;5.02;100.00;100561.59;6274869;28;20049;-71
2023/11/27 01:30:53;;;;;;;3.65;2.25;;;;;;;5.01;100.00;100552.06;6270462;28;20438;-71
2023/11/27 01:33:55;;;;;;;9.52;2.83;;;;;;;4.94;100.00;100551.41;6271236;28;20672;-71
2023/11/27 01:36:56;;;;;;;5.60;2.83;;;;;;;4.89;100.00;100545.50;6277826;28;20349;-71
2023/11/27 01:39:59;;;;;;;11.23;2.20;;;;;;;4.93;100.00;100548.88;6266476;28;20064;-71
2023/11/27 01:43:00;;;;;;;4.03;2.15;;;;;;;4.90;100.00;100546.34;6274740;28;20052;-72
2023/11/27 01:46:21;;;;;;;9.13;3.38;;;;;;;4.88;100.00;100541.22;6274710;28;20429;-72
2023/11/27 01:49:23;;;;;;;5.97;2.70;;;;;;;4.89;100.00;100540.31;6274933;28;20155;-71
2023/11/27 01:52:27;;;;;;;5.32;2.88;;;;;;;4.84;100.00;100535.25;6279349;28;20056;-71
2023/11/27 01:55:30;;;;;;;6.63;3.47;;;;;;;4.80;100.00;100530.19;6292110;22;20048;-74
2023/11/27 01:58:32;;;;;;;5.05;2.80;;;;;;;4.81;100.00;100526.69;6248909;28;20050;-74
2023/11/27 02:01:33;;;;;;;8.57;3.20;;;;;;;4.78;100.00;100524.19;6263170;28;20060;-74
2023/11/27 02:04:35;;;;;;;9.07;3.53;;;;;;;4.75;100.00;100513.88;6273789;28;20049;-74
2023/11/27 02:07:36;;;;;;;5.25;2.60;;;;;;;4.78;100.00;100511.19;6261895;28;20059;-74
2023/11/27 02:10:39;;;;;;;10.23;3.53;;;;;;;4.88;100.00;100504.75;6270450;28;20088;-75
2023/11/27 02:13:40;;;;;;;5.57;3.15;;;;;;;4.82;100.00;100498.00;6278682;28;20353;-74
2023/11/27 02:16:42;;;;;;;7.93;3.85;;;;;;;4.79;100.00;100492.06;6278378;28;20053;-75
2023/11/27 02:19:43;;;;;;;7.28;4.10;;;;;;;4.77;100.00;100483.47;6278955;28;20052;-74
2023/11/27 02:22:46;;;;;;;5.90;3.45;;;;;;;4.78;100.00;100483.41;6280670;28;20428;-74
2023/11/27 02:25:49;;;;;;;11.98;5.55;;;;;;;4.81;100.00;100487.63;6274288;28;20053;-75
2023/11/27 02:28:50;;;;;;;15.63;5.40;;;;;;;4.82;100.00;100484.16;6278575;28;20060;-75
2023/11/27 02:31:52;;;;;;;9.93;5.07;;;;;;;4.85;100.00;100484.03;6278627;28;20049;-75
2023/11/27 02:34:53;;;;;;;14.00;6.60;;;;;;;4.84;100.00;100483.19;6278366;28;20052;-75
2023/11/27 02:37:55;;;;;;;14.55;5.88;;;;;;;4.79;100.00;100474.69;6277942;28;20061;-75
2023/11/27 02:40:59;;;;;;;16.52;6.70;;;;;;;4.86;100.00;100472.72;6278398;28;20114;-75
2023/11/27 02:44:01;;;;;;;15.35;6.03;;;;;;;4.82;100.00;100463.31;6278069;28;20056;-75
2023/11/27 02:47:02;;;;;;;13.48;6.38;;;;;;;4.84;100.00;100467.56;6278269;28;20045;-75
2023/11/27 02:50:04;;;;;;;16.13;7.63;;;;;;;4.90;100.00;100469.09;6277940;28;20327;-75
2023/11/27 02:53:06;;;;;;;21.77;7.78;;;;;;;4.94;100.00;100473.28;6277888;28;20060;-75
2023/11/27 02:56:09;;;;;;;21.17;8.95;;;;;;;4.82;100.00;100465.94;6277657;28;20060;-75
2023/11/27 02:59:10;;;;;;;25.30;9.35;;;;;;;4.82;100.00;100456.38;6278010;28;20049;-76
2023/11/27 03:02:12;;;;;;;24.13;10.38;;;;;;;4.82;100.00;100458.13;6277733;28;20057;-75
2023/11/27 03:05:13;;;;;;;24.20;10.50;;;;;;;4.80;100.00;100452.94;6277878;28;20045;-75
2023/11/27 03:08:15;;;;;;;29.55;10.60;;;;;;;4.84;100.00;100453.69;6277486;28;20056;-75
2023/11/27 03:11:17;;;;;;;21.85;10.02;;;;;;;4.84;100.00;100438.06;6277499;28;20049;-75
2023/11/27 03:14:19;;;;;;;29.50;12.40;;;;;;;4.82;100.00;100443.34;6276734;28;20053;-75
2023/11/27 03:17:21;;;;;;;26.73;10.93;;;;;;;4.80;100.00;100439.06;6276647;28;20045;-75
2023/11/27 03:20:22;;;;;;;23.98;10.90;;;;;;;4.76;100.00;100437.47;6276701;28;20438;-75
2023/11/27 03:23:24;;;;;;;28.30;12.60;;;;;;;4.79;100.00;100429.56;6277028;28;20060;-75
2023/11/27 03:26:27;;;;;;;30.42;12.40;;;;;;;4.81;100.00;100425.16;6277383;28;20159;-75
2023/11/27 03:29:29;;;;;;;27.13;11.85;;;;;;;4.84;100.00;100415.50;6277647;28;20060;-75
2023/11/27 03:32:30;;;;;;;28.95;12.80;;;;;;;4.86;100.00;100420.66;6278978;28;20060;-75
2023/11/27 03:35:32;;;;;;;32.45;12.75;;;;;;;4.79;100.00;100421.78;6270048;28;20052;-76
2023/11/27 03:38:33;;;;;;;26.52;12.75;;;;;;;4.73;100.00;100415.03;6276958;28;20056;-75
2023/11/27 03:41:36;;;;;;;33.38;14.00;;;;;;;4.78;100.00;100407.91;6274573;28;20361;-75
2023/11/27 03:44:37;;;;;;;27.33;11.40;;;;;;;4.81;100.00;100405.22;6276575;28;20044;-75
2023/11/27 03:47:39;;;;;;;28.85;11.48;;;;;;;4.80;100.00;100410.44;6276761;28;20045;-75
2023/11/27 03:50:40;;;;;;;26.05;12.65;;;;;;;4.81;100.00;100404.31;6276704;28;20060;-75
2023/11/27 03:53:42;;;;;;;29.58;12.80;;;;;;;4.80;100.00;100402.63;6273600;28;20056;-75
2023/11/27 03:56:44;;;;;;;27.10;12.52;;;;;;;4.74;100.00;100393.28;6276327;28;20053;-75
2023/11/27 03:59:46;;;;;;;27.58;12.52;;;;;;;4.73;100.00;100396.81;6276362;28;20441;-75
2023/11/27 04:02:47;;;;;;;30.27;12.35;;;;;;;4.75;100.00;100389.78;6276103;28;20044;-75
2023/11/27 04:05:48;;;;;;;26.30;11.85;;;;;;;4.78;100.00;100383.63;6276206;28;20047;-75
2023/11/27 04:08:50;;;;;;;32.05;14.38;;;;;;;4.78;100.00;100394.03;6275916;28;20049;-75
2023/11/27 04:11:53;;;;;;;33.95;14.23;;;;;;;4.78;100.00;100381.88;6276303;28;20135;-75
2023/11/27 04:14:54;;;;;;;36.95;12.23;;;;;;;4.78;100.00;100381.88;6268006;28;20048;-75
2023/11/27 04:17:56;;;;;;;21.63;10.55;;;;;;;4.77;100.00;100381.94;6275836;28;20092;-75
2023/11/27 04:20:58;;;;;;;31.63;12.23;;;;;;;4.78;100.00;100376.66;6275805;28;20347;-75
2023/11/27 04:24:00;;;;;;;26.17;12.30;;;;;;;4.79;100.00;100365.34;6276449;28;20073;-75
2023/11/27 04:27:03;;;;;;;26.90;12.77;;;;;;;4.75;100.00;100371.56;6267108;28;20045;-75
2023/11/27 04:30:06;;;;;;;32.92;14.10;;;;;;;4.73;100.00;100362.13;6275772;28;20052;-74
2023/11/27 04:33:07;;;;;;;28.67;12.45;;;;;;;4.73;100.00;100367.31;6275666;28;20072;-74
2023/11/27 04:36:10;;;;;;;28.17;12.00;;;;;;;4.70;100.00;100360.47;6275248;28;20041;-74
2023/11/27 04:39:11;;;;;;;20.45;10.85;;;;;;;4.73;100.00;100362.97;6275553;28;20071;-74
2023/11/27 04:42:14;;;;;;;27.30;12.20;;;;;;;4.72;100.00;100353.44;6275506;28;20056;-74
2023/11/27 04:45:18;;;;;;;24.88;12.00;;;;;;;4.73;100.00;100349.13;6275524;28;20433;-74
2023/11/27 04:48:21;;;;;;;28.67;12.88;;;;;;;4.76;100.00;100341.16;6275312;28;20049;-74
2023/11/27 04:51:23;;;;;;;30.05;11.68;;;;;;;4.84;100.00;100341.75;6275517;28;20555;-74
2023/11/27 04:54:24;;;;;;;32.35;13.52;;;;;;;4.78;100.00;100337.63;6271830;28;20361;-74
2023/11/27 04:57:28;;;;;;;25.60;12.40;;;;;;;4.79;100.00;100328.06;6263400;28;20049;-74
2023/11/27 05:00:30;;;;;;;27.77;12.48;;;;;;;4.79;100.00;100326.28;6274875;28;20131;-77
2023/11/27 05:03:31;;;;;;;23.67;12.18;;;;;;;4.77;100.00;100322.06;6274966;28;20215;-76
2023/11/27 05:06:33;;;;;;;35.67;15.43;;;;;;;4.72;100.00;100313.56;6275102;28;20053;-74
2023/11/27 05:09:37;;;;;;;37.28;15.02;;;;;;;4.71;100.00;100315.31;6275057;28;20059;-74
2023/11/27 05:12:39;;;;;;;32.50;13.77;;;;;;;4.72;100.00;100311.78;6274981;28;20127;-74
2023/11/27 05:15:41;;;;;;;36.65;13.20;;;;;;;4.71;100.00;100309.25;6268854;28;20659;-74
2023/11/27 05:18:43;;;;;;;31.42;14.25;;;;;;;4.68;100.00;100312.84;6261806;28;20077;-74
2023/11/27 05:21:44;;;;;;;31.52;13.10;;;;;;;4.68;100.00;100310.22;6261602;28;20430;-73
2023/11/27 05:24:46;;;;;;;31.10;12.63;;;;;;;4.62;100.00;100299.19;6261541;28;20044;-74
2023/11/27 05:27:49;;;;;;;33.22;13.70;;;;;;;4.67;100.00;100298.09;6262486;28;20045;-74
2023/11/27 05:30:50;;;;;;;31.00;13.68;;;;;;;4.64;100.00;100297.38;6265812;28;20048;-74
2023/11/27 05:33:52;;;;;;;26.95;12.90;;;;;;;4.65;100.00;100297.31;6262413;28;20053;-74
2023/11/27 05:36:53;;;;;;;29.38;12.55;;;;;;;4.64;100.00;100298.22;6263224;28;20392;-74
2023/11/27 05:39:55;;;;;;;31.20;14.18;;;;;;;4.57;100.00;100294.13;6267562;28;20076;-73
2023/11/27 05:43:04;;;;;;;33.80;13.73;;;;;;;4.58;100.00;100288.03;6279341;28;20082;-74
2023/11/27 05:46:06;;;;;;;37.08;13.50;;;;;;;4.54;100.00;100281.22;6279703;28;20045;-73
2023/11/27 05:49:08;;;;;;;31.17;12.35;;;;;;;4.49;100.00;100281.41;6279328;28;20438;-74
2023/11/27 05:52:11;;;;;;;23.40;11.40;;;;;;;4.47;100.00;100283.22;6270884;28;20357;-73
2023/11/27 05:55:12;;;;;;;30.85;12.88;;;;;;;4.42;100.00;100285.13;6279317;28;20094;-74
2023/11/27 05:58:15;;;;;;;23.75;11.70;;;;;;;4.46;100.00;100278.06;6274050;28;20056;-74
2023/11/27 06:01:17;;;;;;;23.15;10.98;;;;;;;4.46;100.00;100275.47;6276611;28;20518;-74
2023/11/27 06:04:18;;;;;;;26.30;10.88;;;;;;;4.54;100.00;100270.81;6270708;28;20053;-74
2023/11/27 06:07:20;;;;;;;20.67;9.32;;;;;;;4.46;100.00;100265.91;6269929;28;20124;-74
2023/11/27 06:10:21;;;;;;;23.33;11.18;;;;;;;4.38;100.00;100259.28;6266418;28;20054;-73
2023/11/27 06:13:24;;;;;;;28.77;9.85;;;;;;;4.39;100.00;100253.16;6266899;28;20071;-74
2023/11/27 06:16:25;;;;;;;27.58;9.32;;;;;;;4.40;100.00;100254.88;6269576;28;20045;-73
2023/11/27 06:19:27;;;;;;;18.80;8.35;;;;;;;4.39;100.00;100246.22;6278883;28;20110;-73
2023/11/27 06:22:32;;;;;;;24.35;9.00;;;;;;;4.33;100.00;100239.47;6276850;28;20053;-73
2023/11/27 06:25:35;;;;;;;17.27;8.40;;;;;;;4.38;100.00;100244.53;6271241;28;20353;-74
2023/11/27 06:28:38;;;;;;;17.73;9.20;;;;;;;4.40;100.00;100239.25;6267790;28;20110;-74
2023/11/27 06:31:39;;;;;;;17.88;8.93;;;;;;;4.39;100.00;100232.38;6265465;28;20134;-74
2023/11/27 06:34:41;;;;;;;17.48;8.63;;;;;;;4.40;100.00;100234.91;6265499;28;20045;-77
2023/11/27 06:37:42;;;;;;;22.05;8.25;;;;;;;4.39;100.00;100220.19;6266941;28;20045;-76
2023/11/27 06:40:44;;;;;;;21.45;10.13;;;;;;;4.38;100.00;100230.66;6267845;28;20045;-76
2023/11/27 06:43:47;;;;;;;18.08;8.27;;;;;;;4.36;100.00;100214.25;6265450;28;20057;-77
2023/11/27 06:46:48;;;;;;;17.83;8.43;;;;;;;4.41;100.00;100218.41;6264422;28;20052;-73
2023/11/27 06:49:50;;;;;;;18.80;8.85;;;;;;;4.33;100.00;100210.88;6265757;28;20362;-74
2023/11/27 06:52:51;;;;;;;17.17;8.85;;;;;;;4.38;100.00;100208.09;6263680;28;20049;-73
2023/11/27 06:55:53;;;;;;;12.75;7.07;;;;;;;4.39;100.00;100199.38;6258256;28;20191;-74
2023/11/27 06:58:56;;;;;;;19.05;8.43;;;;;;;4.30;100.00;100191.94;6253277;28;20080;-74
2023/11/27 07:01:57;;;;;;;22.15;8.77;;;;;;;4.29;100.00;100196.28;6263730;28;20048;-73
2023/11/27 07:04:59;;;;;;;15.20;7.80;;;;;;;4.32;100.00;100187.53;6269428;28;20448;-74
2023/11/27 07:08:00;;;;;;;13.65;7.45;;;;;;;4.29;100.00;100191.06;6277523;28;20434;-74
2023/11/27 07:11:03;;;;;;;18.38;8.23;;;;;;;4.28;100.00;100181.59;6277494;28;20072;-73
2023/11/27 07:14:05;;;;;;;12.38;7.40;;;;;;;4.27;100.00;100182.50;6277478;28;20091;-73
2023/11/27 07:17:07;;;;;;;19.10;8.60;;;;;;;4.31;100.00;100178.88;6281540;28;20322;-74
2023/11/27 07:20:17;;;;;;;18.75;8.75;;;;;;;4.31;100.00;100185.81;6286442;28;20041;-74
2023/11/27 07:23:18;;;;;;;14.48;7.78;;;;;;;4.32;100.00;100182.34;6276994;28;20052;-74
2023/11/27 07:26:20;;;;;;;20.27;7.75;;;;;;;4.30;100.00;100174.56;6268817;28;20049;-73
2023/11/27 07:29:23;;;;;;;20.08;8.38;;;;;;;4.32;100.00;100171.94;6274103;28;20045;-73
2023/11/27 07:32:26;;;;;;;18.02;7.65;;;;;;;4.29;100.00;100165.06;6262160;28;20057;-74
2023/11/27 07:35:27;;;;;;;12.32;7.25;;;;;;;4.27;100.00;100159.09;6252046;28;20045;-74
2023/11/27 07:38:28;;;;;;;17.50;8.07;;;;;;;4.32;100.00;100154.56;6267215;28;20050;-73
2023/11/27 07:41:30;;;;;;;17.73;8.13;;;;;;;4.36;100.00;100157.91;6282303;28;20138;-74
2023/11/27 07:44:33;;;;;;;14.43;7.25;;;;;;;4.40;100.00;100150.81;6270705;28;20053;-74
2023/11/27 07:47:34;;;;;;;13.82;7.63;;;;;;;4.39;100.00;100151.72;6270552;28;20044;-74
2023/11/27 07:50:36;;;;;;;15.25;7.80;;;;;;;4.41;100.00;100148.16;6280494;28;20056;-74
2023/11/27 07:53:37;;;;;;;16.50;7.50;;;;;;;4.45;100.00;100146.28;6282400;28;20047;-75
2023/11/27 07:56:39;;;;;;;15.75;8.30;;;;;;;4.49;100.00;100147.84;6283071;28;20460;-75
2023/11/27 07:59:43;;;;;;;13.52;7.88;;;;;;;4.50;100.00;100137.41;6278920;28;20452;-76
2023/11/27 08:02:44;;;;;;;16.88;7.80;;;;;;;4.48;100.00;100133.16;6272801;28;20460;-75
2023/11/27 08:05:46;;;;;;;18.27;8.30;;;;;;;4.42;100.00;100131.66;6278326;28;20433;-74
2023/11/27 08:08:47;;;;;;;16.58;7.97;;;;;;;4.45;100.00;100128.94;6272878;28;20053;-76
2023/11/27 08:11:49;;;;;;;15.80;7.72;;;;;;;4.45;100.00;100131.53;6269867;28;20049;-77
2023/11/27 08:14:52;;;;;;;16.70;8.00;;;;;;;4.35;100.00;100129.31;6272733;28;20036;-76
2023/11/27 08:17:55;;;;;;;14.73;7.30;;;;;;;4.43;100.00;100129.88;6276295;28;20044;-75
2023/11/27 08:20:56;;;;;;;16.90;7.07;;;;;;;4.36;100.00;100126.69;6271716;28;20132;-74
2023/11/27 08:23:58;;;;;;;12.85;7.47;;;;;;;4.33;100.00;100127.63;6266707;28;20052;-76
2023/11/27 08:27:01;;;;;;;11.55;6.72;;;;;;;4.35;100.00;100124.97;6262990;28;20041;-77
2023/11/27 08:30:05;;;;;;;16.40;8.18;;;;;;;4.38;100.00;100124.88;6267073;28;20045;-76
2023/11/27 08:33:06;;;;;;;15.60;7.55;;;;;;;4.36;100.00;100118.00;6277784;28;20076;-75
2023/11/27 08:36:11;;;;;;;10.52;6.47;;;;;;;4.40;100.00;100119.59;6286034;28;20052;-77
2023/11/27 08:39:14;;;;;;;14.95;6.88;;;;;;;4.35;100.00;100114.56;6269202;28;20377;-77
2023/11/27 08:42:15;;;;;;;15.63;6.93;;;;;;;4.35;100.00;100105.91;6275816;28;20331;-77
2023/11/27 08:45:18;;;;;;;11.63;6.15;;;;;;;4.39;100.00;100107.50;6264491;28;20057;-77
2023/11/27 08:48:20;;;;;;;13.73;6.93;;;;;;;4.39;100.00;100100.53;6274430;28;20420;-81
2023/11/27 08:51:21;;;;;;;10.90;6.20;;;;;;;4.43;100.00;100098.69;6274885;28;20060;-79
2023/11/27 08:54:24;;;;;;;11.40;6.63;;;;;;;4.42;100.00;100104.78;6274046;28;20053;-79
2023/11/27 08:57:26;;;;;;;11.75;6.88;;;;;;;4.38;100.00;100087.59;6285769;28;20048;-79
2023/11/27 09:00:29;;;;;;;10.15;6.38;;;;;;;4.40;100.00;100085.78;6276360;28;20053;-79
2023/11/27 09:03:30;;;;;;;12.48;7.25;;;;;;;4.39;100.00;100090.13;6258511;28;20045;-79
2023/11/27 09:06:32;;;;;;;9.77;6.00;;;;;;;4.44;100.00;100084.75;6250412;28;20073;-78
2023/11/27 09:09:33;;;;;;;10.95;6.03;;;;;;;4.46;100.00;100086.41;6258058;28;20056;-77
2023/11/27 09:12:35;;;;;;;11.80;6.45;;;;;;;4.47;100.00;100082.88;6267944;28;20060;-78
2023/11/27 09:15:37;;;;;;;9.82;6.28;;;;;;;4.48;100.00;100078.53;6279926;28;20502;-80
2023/11/27 09:18:39;;;;;;;11.35;6.13;;;;;;;4.48;100.00;100076.78;6280405;28;20048;-79
2023/11/27 09:21:40;;;;;;;14.65;6.47;;;;;;;4.44;100.00;100075.19;6277029;28;20357;-79
2023/11/27 09:24:42;;;;;;;12.38;7.25;;;;;;;4.43;100.00;100073.50;6280103;28;20059;-78
2023/11/27 09:27:43;;;;;;;10.25;6.60;;;;;;;4.45;100.00;100070.84;6279813;28;20449;-78
2023/11/27 09:30:47;;;;;;;11.15;6.15;;;;;;;4.45;100.00;100065.63;6280106;28;20068;-79
2023/11/27 09:33:48;;;;;;;12.73;6.40;;;;;;;4.46;100.00;100057.78;6279397;28;20460;-75
2023/11/27 09:36:49;;;;;;;8.52;5.50;;;;;;;4.45;100.00;100053.50;6279239;28;20048;-75
2023/11/27 09:39:51;;;;;;;9.98;5.30;;;;;;;4.47;100.00;100050.81;6279871;28;20049;-75
2023/11/27 09:42:53;;;;;;;9.27;5.10;;;;;;;4.44;100.00;100051.78;6279272;28;20052;-74
2023/11/27 09:45:58;;;;;;;9.35;5.25;;;;;;;4.47;100.00;100038.66;6282914;28;20048;-76
2023/11/27 09:49:02;;;;;;;8.25;5.32;;;;;;;4.44;100.00;100027.53;6266499;28;20053;-74
2023/11/27 09:52:10;;;;;;;9.63;5.57;;;;;;;4.51;100.00;100034.19;6270397;28;20068;-77
2023/11/27 09:55:15;;;;;;;9.07;5.70;;;;;;;4.45;100.00;100024.88;6266048;28;20041;-77
2023/11/27 09:58:17;;;;;;;9.55;6.07;;;;;;;4.50;100.00;100017.75;6265744;28;20071;-80
2023/11/27 10:01:27;;;;;;;11.43;6.35;;;;;;;4.47;100.00;100017.84;6266884;28;20053;-80
2023/11/27 10:04:30;;;;;;;9.45;5.80;;;;;;;4.54;100.00;100024.50;6267510;28;20357;-79
2023/11/27 10:07:31;;;;;;;10.98;6.20;;;;;;;4.47;100.00;100023.06;6265589;28;20052;-80
2023/11/27 10:10:33;;;;;;;12.98;7.05;;;;;;;4.41;100.00;100022.47;6266262;28;20052;-80
2023/11/27 10:13:35;;;;;;;12.95;8.23;;;;;;;4.40;100.00;100008.59;6269179;28;20052;-79
2023/11/27 10:16:40;;;;;;;14.77;7.38;;;;;;;4.43;100.00;100005.03;6266045;28;20041;-79
2023/11/27 10:19:41;;;;;;;14.18;7.43;;;;;;;4.42;100.00;99998.97;6265443;28;20049;-80
2023/11/27 10:22:43;;;;;;;16.33;6.93;;;;;;;4.38;100.00;99984.41;6278540;28;20437;-79
2023/11/27 10:25:45;;;;;;;9.60;5.50;;;;;;;4.35;100.00;99974.09;6277909;28;20056;-81
2023/11/27 10:28:48;;;;;;;12.43;5.60;;;;;;;4.26;100.00;99967.50;6276127;28;20099;-77
2023/11/27 10:31:54;;;;;;;14.63;5.55;;;;;;;4.33;100.00;99953.38;6278550;28;20049;-78
2023/11/27 10:34:57;;;;;;;9.32;5.60;;;;;;;4.37;100.00;99956.69;6278222;28;20051;-78
2023/11/27 10:37:59;;;;;;;10.63;5.60;;;;;;;4.37;100.00;99946.31;6278179;28;20044;-77
2023/11/27 10:41:03;;;;;;;11.52;5.95;;;;;;;4.43;100.00;99938.22;6275871;28;20464;-78
2023/11/27 10:44:08;;;;;;;9.80;5.97;;;;;;;4.42;100.00;99927.91;6281656;28;20045;-79
2023/11/27 10:47:11;;;;;;;11.73;6.07;;;;;;;4.40;100.00;99917.53;6270100;28;20041;-78
2023/11/27 10:50:15;;;;;;;12.05;6.78;;;;;;;4.45;100.00;99919.94;6261818;28;20053;-78
2023/11/27 10:53:21;;;;;;;9.88;5.05;;;;;;;4.31;100.00;99918.78;6267355;28;20399;-81
2023/11/27 10:56:27;;;;;;;9.25;5.30;;;;;;;4.30;100.00;99913.63;6270054;28;20496;-78
2023/11/27 10:59:30;;;;;;;9.82;5.38;;;;;;;4.36;100.00;99920.31;6268886;28;20433;-78
2023/11/27 11:02:36;;;;;;;12.45;4.68;;;;;;;4.31;100.00;99918.78;6265802;28;20437;-77
2023/11/27 11:05:43;;;;;;;8.63;4.35;;;;;;;4.40;100.00;99907.13;6267907;28;20252;-81
2023/11/27 11:08:48;;;;;;;7.38;3.85;;;;;;;4.28;100.00;99900.69;6267948;28;20049;-77
2023/11/27 11:11:50;;;;;;;9.18;3.78;;;;;;;4.18;100.00;99895.91;6263449;28;20067;-77
2023/11/27 11:14:53;;;;;;;6.40;3.88;;;;;;;4.18;100.00;99888.13;6268437;28;20061;-77
2023/11/27 11:18:08;;;;;;;7.93;3.15;;;;;;;4.27;100.00;99877.34;6268452;28;20057;-77
2023/11/27 11:21:30;;;;;;;6.05;4.13;;;;;;;4.27;100.00;99864.34;6270973;28;20342;-77
2023/11/27 11:24:39;;;;;;;5.82;3.47;;;;;;;4.20;100.00;99863.75;6262134;28;20045;-80
2023/11/27 11:27:49;;;;;;;5.00;3.17;;;;;;;4.21;100.00;99857.63;6267417;28;20052;-78
2023/11/27 11:31:15;;;;;;;4.25;2.83;;;;;;;4.24;100.00;99852.31;6262615;28;20041;-80
2023/11/27 11:34:23;;;;;;;6.50;2.90;;;;;;;4.26;100.00;99849.66;6265516;28;20059;-76
2023/11/27 11:37:25;;;;;;;4.85;3.13;;;;;;;4.23;100.00;99849.78;6265828;28;20045;-79
2023/11/27 11:40:40;;;;;;;5.32;3.05;;;;;;;4.17;100.00;99842.22;6264652;28;20049;-79
2023/11/27 11:43:42;;;;;;;5.82;3.05;;;;;;;4.15;100.00;99837.09;6265081;28;20045;-78
2023/11/27 11:46:45;;;;;;;4.35;2.85;;;;;;;4.17;100.00;99831.84;6267591;28;20053;-78
2023/11/27 11:49:48;;;;;;;8.20;3.05;;;;;;;4.18;100.00;99826.59;6263569;28;20103;-80
2023/11/27 11:52:49;;;;;;;5.90;3.08;;;;;;;4.20;100.00;99818.72;6264604;28;20049;-77
2023/11/27 11:55:53;;;;;;;6.05;3.30;;;;;;;4.11;100.00;99806.09;6264798;28;20136;-77
2023/11/27 11:58:57;;;;;;;4.18;2.83;;;;;;;4.06;100.00;99804.53;6263706;28;20349;-80
2023/11/27 12:01:58;;;;;;;4.20;2.75;;;;;;;4.08;100.00;99800.09;6267274;28;20064;-78
2023/11/27 12:05:07;;;;;;;5.93;3.75;;;;;;;4.12;100.00;99792.19;6265072;28;20071;-80
2023/11/27 12:08:11;;;;;;;3.13;2.50;;;;;;;4.08;100.00;99791.47;6264597;28;20132;-77
2023/11/27 12:11:14;;;;;;;5.35;3.15;;;;;;;4.04;100.00;99775.16;6265733;28;20053;-77
2023/11/27 12:14:18;;;;;;;6.78;3.38;;;;;;;4.07;100.00;99777.63;6264022;28;20044;-80
2023/11/27 12:17:20;;;;;;;18.08;4.25;;;;;;;3.97;100.00;99759.88;6263048;28;20050;-78
2023/11/27 12:20:23;;;;;;;5.30;3.30;;;;;;;3.82;100.00;99758.78;6264185;28;20055;-80
2023/11/27 12:23:25;;;;;;;5.78;3.53;;;;;;;3.81;100.00;99744.94;6262201;28;20053;-80
2023/11/27 12:26:27;;;;;;;6.65;3.95;;;;;;;3.85;100.00;99737.84;6265831;28;20041;-80
2023/11/27 12:29:29;;;;;;;10.65;3.88;;;;;;;3.83;100.00;99734.47;6264083;28;20131;-80
2023/11/27 12:32:31;;;;;;;5.30;3.22;;;;;;;3.66;100.00;99732.56;6265418;28;20053;-78
2023/11/27 12:35:35;;;;;;;5.82;3.13;;;;;;;3.65;100.00;99728.28;6263276;28;20343;-80
2023/11/27 12:38:36;;;;;;;5.20;3.22;;;;;;;3.66;100.00;99726.53;6265792;28;20049;-80
2023/11/27 12:41:38;;;;;;;5.82;3.08;;;;;;;3.62;100.00;99719.78;6270914;28;20041;-79
2023/11/27 12:44:46;;;;;;;5.03;3.30;;;;;;;3.55;100.00;99720.03;6263119;28;20440;-79
2023/11/27 12:47:50;;;;;;;6.90;3.45;;;;;;;3.49;100.00;99719.41;6266255;28;20072;-80
2023/11/27 12:50:54;;;;;;;6.10;3.55;;;;;;;3.47;100.00;99706.50;6262307;28;20437;-78
2023/11/27 12:53:59;;;;;;;5.93;3.88;;;;;;;3.46;100.00;99706.59;6263226;28;20045;-78
2023/11/27 12:57:02;;;;;;;8.40;2.90;;;;;;;3.41;100.00;99700.75;6263516;28;20706;-78
2023/11/27 13:00:04;;;;;;;4.68;2.85;;;;;;;3.41;100.00;99709.38;6265194;28;20080;-76
2023/11/27 13:03:05;;;;;;;6.65;3.55;;;;;;;3.27;100.00;99703.88;6265850;28;20045;-77
2023/11/27 13:06:09;;;;;;;6.03;3.08;;;;;;;3.29;100.00;99691.69;6260849;28;20068;-76
2023/11/27 13:09:10;;;;;;;8.00;3.58;;;;;;;3.27;100.00;99691.75;6268182;28;20048;-80
2023/11/27 13:12:18;;;;;;;8.15;3.55;;;;;;;3.18;100.00;99686.94;6266197;28;20049;-79
2023/11/27 13:15:23;;;;;;;9.07;4.00;;;;;;;3.34;100.00;99692.34;6265556;28;20049;-77
2023/11/27 13:18:28;;;;;;;5.97;3.42;;;;;;;3.21;100.00;99684.19;6263596;28;20123;-77
2023/11/27 13:21:32;;;;;;;7.30;3.63;;;;;;;3.21;100.00;99685.94;6261738;28;20135;-77
2023/11/27 13:24:33;;;;;;;7.97;3.15;;;;;;;3.17;100.00;99684.38;6260852;28;20048;-78
2023/11/27 13:27:44;;;;;;;7.30;3.95;;;;;;;3.22;100.00;99680.69;6262911;28;20048;-80
2023/11/27 13:30:51;;;;;;;5.65;3.47;;;;;;;3.12;100.00;99681.97;6262556;28;20056;-80
2023/11/27 13:33:53;;;;;;;5.00;3.38;;;;;;;3.22;100.00;99672.88;6264993;28;20211;-79
2023/11/27 13:36:59;;;;;;;6.68;3.47;;;;;;;3.13;100.00;99665.47;6268628;28;20045;-81
2023/11/27 13:40:03;;;;;;;5.10;3.28;;;;;;;3.19;100.00;99659.22;6266764;28;20049;-81
2023/11/27 13:43:13;;;;;;;7.00;3.70;;;;;;;3.14;100.00;99653.38;6266392;28;20048;-77
2023/11/27 13:46:14;;;;;;;7.57;3.47;;;;;;;3.14;100.00;99653.38;6263844;28;20584;-77
2023/11/27 13:49:18;;;;;;;6.93;3.55;;;;;;;3.02;100.00;99644.31;6268770;28;20052;-78
2023/11/27 13:52:23;;;;;;;6.80;3.55;;;;;;;3.09;100.00;99631.91;6261755;28;20065;-78
2023/11/27 13:55:24;;;;;;;7.88;3.75;;;;;;;3.08;100.00;99623.28;6263866;28;20052;-79
2023/11/27 13:58:27;;;;;;;8.63;4.10;;;;;;;3.04;100.00;99617.41;6261666;28;20139;-79
2023/11/27 14:01:28;;;;;;;8.27;3.95;;;;;;;2.87;100.00;99619.00;6269128;28;20076;-79
2023/11/27 14:04:29;;;;;;;6.35;4.30;;;;;;;2.92;100.00;99599.72;6268883;28;20081;-79
2023/11/27 14:07:34;;;;;;;6.18;3.85;;;;;;;2.87;100.00;99598.22;6270457;28;20048;-78